createdAt,value
2023-04-15T03:01:05.864Z,6.73
2023-04-15T03:03:33.266Z,6.40
2023-04-15T03:06:00.698Z,6.80
2023-04-15T03:08:27.908Z,6.23
2023-04-15T03:10:55.146Z,5.70
2023-04-15T03:13:22.679Z,8.70
2023-04-15T03:15:50.044Z,5.70
2023-04-15T03:18:17.256Z,5.77
2023-04-15T03:20:44.468Z,6.37
2023-04-15T03:23:11.696Z,5.00
2023-04-15T03:25:38.926Z,5.47
2023-04-15T03:28:06.472Z,4.70
2023-04-15T03:30:34.922Z,5.87
2023-04-15T03:33:02.260Z,4.70
2023-04-15T03:35:29.669Z,4.77
2023-04-15T03:37:57.156Z,5.10
2023-04-15T03:40:24.342Z,5.37
2023-04-15T03:42:51.536Z,5.10
2023-04-15T03:45:18.723Z,5.63
2023-04-15T03:47:46.546Z,4.73
2023-04-15T03:50:13.762Z,5.63
2023-04-15T03:52:41.019Z,5.30
2023-04-15T03:55:09.395Z,4.53
2023-04-15T03:57:39.026Z,4.63
2023-04-15T04:00:07.775Z,5.43
2023-04-15T04:02:35.176Z,4.80
2023-04-15T04:05:02.737Z,3.83
2023-04-15T04:07:30.313Z,4.67
2023-04-15T04:09:58.067Z,5.03
2023-04-15T04:12:25.420Z,5.10
2023-04-15T04:14:52.584Z,5.00
2023-04-15T04:17:19.817Z,4.23
2023-04-15T04:19:47.013Z,4.80
2023-04-15T04:22:14.272Z,5.07
2023-04-15T04:24:41.493Z,5.20
2023-04-15T04:27:08.660Z,7.57
2023-04-15T04:29:36.114Z,10.53
2023-04-15T04:32:03.454Z,9.00
2023-04-15T04:34:30.771Z,7.90
2023-04-15T04:36:57.964Z,6.33
2023-04-15T04:39:25.289Z,6.07
2023-04-15T04:41:52.571Z,5.50
2023-04-15T04:44:19.770Z,5.50
2023-04-15T04:46:46.945Z,5.03
2023-04-15T04:49:14.177Z,5.57
2023-04-15T04:51:41.526Z,5.00
2023-04-15T04:54:08.777Z,5.07
2023-04-15T04:56:36.391Z,5.23
2023-04-15T04:59:03.693Z,5.63
2023-04-15T05:01:30.982Z,5.43
2023-04-15T05:03:58.370Z,5.07
2023-04-15T05:06:26.350Z,5.37
2023-04-15T05:08:53.520Z,5.27
2023-04-15T05:11:20.977Z,5.10
2023-04-15T05:13:48.207Z,5.13
2023-04-15T05:16:15.543Z,5.37
2023-04-15T05:18:42.851Z,5.57
2023-04-15T05:21:10.457Z,6.87
2023-04-15T05:23:38.085Z,7.70
2023-04-15T05:26:05.446Z,6.80
2023-04-15T05:28:32.669Z,7.37
2023-04-15T05:31:00.031Z,7.43
2023-04-15T05:33:27.620Z,7.37
2023-04-15T05:35:54.794Z,7.50
2023-04-15T05:38:22.270Z,7.57
2023-04-15T05:40:49.563Z,6.80
2023-04-15T05:43:16.745Z,6.53
2023-04-15T05:45:43.952Z,6.20
2023-04-15T05:48:11.201Z,6.00
2023-04-15T05:50:41.962Z,6.93
2023-04-15T05:53:09.837Z,5.63
2023-04-15T05:55:36.988Z,6.20
2023-04-15T05:58:04.254Z,6.00
2023-04-15T06:00:31.438Z,6.10
2023-04-15T06:02:59.223Z,6.03
2023-04-15T06:05:26.461Z,5.10
2023-04-15T06:07:53.721Z,5.03
2023-04-15T06:10:21.015Z,6.27
2023-04-15T06:12:48.321Z,5.03
2023-04-15T06:15:15.516Z,5.50
2023-04-15T06:17:42.792Z,5.30
2023-04-15T06:20:11.286Z,5.60
2023-04-15T06:22:39.234Z,5.70
2023-04-15T06:25:08.698Z,5.60
2023-04-15T06:27:35.949Z,5.40
2023-04-15T06:30:03.558Z,4.60
2023-04-15T06:32:30.977Z,4.63
2023-04-15T06:34:58.194Z,4.87
2023-04-15T06:37:25.452Z,6.20
2023-04-15T06:39:52.738Z,7.20
2023-04-15T06:42:20.079Z,6.60
2023-04-15T06:44:47.365Z,6.43
2023-04-15T06:47:14.965Z,6.23
2023-04-15T06:49:43.210Z,8.53
2023-04-15T06:52:11.296Z,5.80
2023-04-15T06:54:38.577Z,4.95
2023-04-15T06:57:07.164Z,4.47
2023-04-15T06:59:34.401Z,4.30
2023-04-15T07:02:01.826Z,4.15
2023-04-15T07:04:29.133Z,3.85
2023-04-15T08:09:46.439Z,2.78
2023-04-15T08:12:13.710Z,2.90
2023-04-15T08:14:40.857Z,2.70
2023-04-15T08:17:08.000Z,2.50
2023-04-15T08:19:35.632Z,2.50
2023-04-15T08:22:02.954Z,2.60
2023-04-15T08:24:31.581Z,2.33
2023-04-15T08:26:59.852Z,2.70
2023-04-15T08:29:27.383Z,2.53
2023-04-15T08:31:54.615Z,2.42
2023-04-15T08:34:22.188Z,2.13
2023-04-15T08:36:49.388Z,2.30
2023-04-15T08:39:16.583Z,2.65
2023-04-15T08:42:03.516Z,2.40
2023-04-15T08:44:33.376Z,2.20
2023-04-15T08:47:05.894Z,2.28
2023-04-15T08:49:35.642Z,2.45
2023-04-15T08:52:04.324Z,2.50
2023-04-15T08:54:32.299Z,2.67
2023-04-15T08:56:59.560Z,2.38
2023-04-15T08:59:26.879Z,2.50
2023-04-15T09:01:55.445Z,2.20
2023-04-15T09:04:22.687Z,2.25
2023-04-15T09:06:49.931Z,2.35
2023-04-15T09:09:17.149Z,2.53
2023-04-15T09:11:44.420Z,2.25
2023-04-15T09:14:12.098Z,2.40
2023-04-15T09:17:03.438Z,3.00
2023-04-15T09:19:33.517Z,2.50
2023-04-15T09:22:01.320Z,2.28
2023-04-15T09:24:38.190Z,2.40
2023-04-15T09:27:06.241Z,2.38
2023-04-15T09:29:33.590Z,2.20
2023-04-15T09:32:11.398Z,2.28
2023-04-15T09:34:38.727Z,2.30
2023-04-15T09:37:07.728Z,2.50
2023-04-15T09:39:52.041Z,2.55
2023-04-15T09:42:26.911Z,2.60
2023-04-15T09:44:54.376Z,2.40
2023-04-15T09:47:32.152Z,2.45
2023-04-15T09:50:00.487Z,2.50
2023-04-15T09:52:28.792Z,2.50
2023-04-15T09:54:58.982Z,2.60
2023-04-15T09:57:33.547Z,2.47
2023-04-15T10:00:00.786Z,2.50
2023-04-15T10:02:30.135Z,2.63
2023-04-15T10:04:57.745Z,2.50
2023-04-15T10:07:26.039Z,2.35
2023-04-15T10:09:53.865Z,2.35
2023-04-15T10:12:22.177Z,2.33
2023-04-15T10:14:59.370Z,2.40
2023-04-15T10:17:35.636Z,2.60
2023-04-15T10:20:05.010Z,2.40
2023-04-15T10:22:33.214Z,2.25
2023-04-15T10:25:01.167Z,2.60
2023-04-15T10:27:29.203Z,2.70
2023-04-15T10:29:57.585Z,2.33
2023-04-15T10:32:26.332Z,2.60
2023-04-15T10:34:54.782Z,2.53
2023-04-15T10:37:23.624Z,2.22
2023-04-15T10:39:51.067Z,2.20
2023-04-15T10:42:19.692Z,2.30
2023-04-15T10:44:52.224Z,2.42
2023-04-15T10:47:22.089Z,2.38
2023-04-15T10:49:58.587Z,2.58
2023-04-15T10:52:27.986Z,2.35
2023-04-15T10:55:15.908Z,2.60
2023-04-15T10:57:44.200Z,2.50
2023-04-15T11:00:18.850Z,2.60
2023-04-15T11:02:57.720Z,2.30
2023-04-15T11:05:42.801Z,2.55
2023-04-15T11:08:11.077Z,2.65
2023-04-15T11:10:38.222Z,2.67
2023-04-15T11:13:16.785Z,2.60
2023-04-15T11:15:45.710Z,2.70
2023-04-15T11:18:22.415Z,2.30
2023-04-15T11:20:57.333Z,2.50
2023-04-15T11:23:47.337Z,2.33
2023-04-15T11:26:15.395Z,2.28
2023-04-15T11:28:45.047Z,2.38
2023-04-15T11:31:17.711Z,2.40
2023-04-15T11:34:02.262Z,2.30
2023-04-15T11:36:32.051Z,2.30
2023-04-15T11:39:00.525Z,2.47
2023-04-15T11:41:27.759Z,2.58
2023-04-15T11:43:54.979Z,2.55
2023-04-15T11:46:28.741Z,2.50
2023-04-15T11:48:56.107Z,2.90
2023-04-15T11:51:23.342Z,2.50
2023-04-15T11:53:52.040Z,2.78
2023-04-15T11:56:23.712Z,2.53
2023-04-15T11:58:57.190Z,2.55
2023-04-15T12:01:42.677Z,2.47
2023-04-15T12:04:15.078Z,2.25
2023-04-15T12:06:42.426Z,2.67
2023-04-15T12:09:10.576Z,2.40
2023-04-15T12:11:43.499Z,2.22
2023-04-15T12:14:22.341Z,2.60
2023-04-15T12:16:53.930Z,2.28
2023-04-15T12:19:34.799Z,2.60
2023-04-15T12:22:08.612Z,2.15
2023-04-15T12:24:37.388Z,2.30
2023-04-15T12:27:09.107Z,2.20
2023-04-15T12:29:38.628Z,2.28
2023-04-15T12:32:11.110Z,2.17
2023-04-15T12:34:42.086Z,2.00
2023-04-15T12:37:11.132Z,2.30
2023-04-15T12:39:41.257Z,4.13
2023-04-15T12:42:09.209Z,4.35
2023-04-15T12:44:37.631Z,4.50
2023-04-15T12:47:05.075Z,5.22
2023-04-15T12:49:33.525Z,5.75
2023-04-15T12:52:02.269Z,5.65
2023-04-15T12:54:30.571Z,5.78
2023-04-15T12:56:58.767Z,5.50
2023-04-15T12:59:26.063Z,5.50
2023-04-15T13:01:54.438Z,5.35
2023-04-15T13:04:22.366Z,6.18
2023-04-15T13:06:49.901Z,5.38
2023-04-15T13:09:17.222Z,5.20
2023-04-15T13:11:44.542Z,5.53
2023-04-15T13:14:13.104Z,5.13
2023-04-15T13:16:40.921Z,5.43
2023-04-15T13:19:08.315Z,5.22
2023-04-15T13:21:36.405Z,5.30
2023-04-15T13:24:05.086Z,5.57
2023-04-15T13:26:32.853Z,5.68
2023-04-15T13:29:01.226Z,5.40
2023-04-15T13:31:28.672Z,5.60
2023-04-15T13:33:57.333Z,5.57
2023-04-15T13:36:24.770Z,6.15
2023-04-15T13:38:52.105Z,5.50
2023-04-15T13:41:20.068Z,5.30
2023-04-15T13:43:47.399Z,4.97
2023-04-15T13:46:15.074Z,4.97
2023-04-15T13:48:42.498Z,4.50
2023-04-15T13:51:09.750Z,4.30
2023-04-15T13:53:38.151Z,3.78
2023-04-15T13:56:09.895Z,3.70
2023-04-15T13:58:38.288Z,3.42
2023-04-15T14:01:07.068Z,3.70
2023-04-15T14:03:36.594Z,3.78
2023-04-15T14:06:05.714Z,3.47
2023-04-15T14:08:33.340Z,3.88
2023-04-15T14:11:00.782Z,3.50
2023-04-15T14:13:28.060Z,4.40
2023-04-15T14:15:56.654Z,4.03
2023-04-15T14:18:23.857Z,4.07
2023-04-15T14:20:51.114Z,4.15
2023-04-15T14:23:18.673Z,4.30
2023-04-15T14:25:47.911Z,4.13
2023-04-15T14:28:16.034Z,4.00
2023-04-15T14:30:43.672Z,4.35
2023-04-15T14:33:11.001Z,4.43
2023-04-15T14:35:39.030Z,4.68
2023-04-15T14:38:08.235Z,6.00
2023-04-15T14:40:35.691Z,5.60
2023-04-15T14:43:03.339Z,6.25
2023-04-15T14:45:30.943Z,6.88
2023-04-15T14:47:58.826Z,6.00
2023-04-15T14:50:26.052Z,6.72
2023-04-15T14:52:53.225Z,5.75
2023-04-15T14:55:20.509Z,5.80
2023-04-15T14:57:47.958Z,5.70
2023-04-15T15:00:16.363Z,5.30
2023-04-15T15:02:43.897Z,5.07
2023-04-15T15:05:14.150Z,5.93
2023-04-15T15:07:41.600Z,6.50
2023-04-15T15:10:09.035Z,6.40
2023-04-15T15:12:36.440Z,5.55
2023-04-15T15:15:12.223Z,5.68
2023-04-15T15:17:43.447Z,7.95
2023-04-15T15:20:11.047Z,5.90
2023-04-15T15:22:38.230Z,5.70
2023-04-15T15:25:05.949Z,5.43
2023-04-15T15:27:33.152Z,5.30
2023-04-15T15:30:00.473Z,6.20
2023-04-15T15:32:27.806Z,5.70
2023-04-15T15:34:55.031Z,5.65
2023-04-15T15:37:22.243Z,5.83
2023-04-15T15:39:50.730Z,5.82
2023-04-15T15:42:19.668Z,5.65
2023-04-15T15:44:49.157Z,5.88
2023-04-15T15:47:16.978Z,5.30
2023-04-15T15:49:44.522Z,5.38
2023-04-15T15:52:12.108Z,5.13
2023-04-15T15:54:42.234Z,5.25
2023-04-15T15:57:10.295Z,5.43
2023-04-15T15:59:41.101Z,5.15
2023-04-15T16:02:14.017Z,4.97
2023-04-15T16:04:43.186Z,6.50
2023-04-15T16:07:11.905Z,5.82
2023-04-15T16:09:41.008Z,6.65
2023-04-15T16:12:08.336Z,6.37
2023-04-15T16:14:35.629Z,6.32
2023-04-15T16:17:03.399Z,7.47
2023-04-15T16:19:31.009Z,7.60
2023-04-15T16:21:58.241Z,6.90
2023-04-15T16:24:25.850Z,7.97
2023-04-15T16:26:53.066Z,7.00
2023-04-15T16:29:20.389Z,6.10
2023-04-15T16:31:47.830Z,6.43
2023-04-15T16:34:16.062Z,8.95
2023-04-15T16:36:43.326Z,7.20
2023-04-15T16:39:10.472Z,6.77
2023-04-15T16:41:38.554Z,7.95
2023-04-15T16:44:08.309Z,6.77
2023-04-15T16:46:36.369Z,7.70
2023-04-15T16:49:04.082Z,7.10
2023-04-15T16:51:32.616Z,6.80
2023-04-15T16:54:00.154Z,7.53
2023-04-15T16:56:27.457Z,7.15
2023-04-15T16:58:54.733Z,7.33
2023-04-15T17:01:22.232Z,7.43
2023-04-15T17:03:49.779Z,7.07
2023-04-15T17:06:17.661Z,7.30
2023-04-15T17:08:44.923Z,7.23
2023-04-15T17:11:12.508Z,6.63
2023-04-15T17:13:39.747Z,7.93
2023-04-15T17:16:07.149Z,8.93
2023-04-15T17:18:34.350Z,9.77
2023-04-15T17:21:01.591Z,9.23
2023-04-15T17:23:29.030Z,11.67
2023-04-15T17:25:56.227Z,11.00
2023-04-15T17:28:23.605Z,10.88
2023-04-15T17:30:51.034Z,9.97
2023-04-15T17:33:55.446Z,11.10
2023-04-15T17:36:05.895Z,10.57
2023-04-15T17:38:33.066Z,10.10
2023-04-15T17:41:00.848Z,10.90
2023-04-15T17:43:28.053Z,11.60
2023-04-15T17:45:56.543Z,10.02
2023-04-15T17:48:26.259Z,10.00
2023-04-15T17:50:53.507Z,9.80
2023-04-15T17:53:20.877Z,11.13
2023-04-15T17:55:48.158Z,10.60
2023-04-15T17:58:15.336Z,11.70
2023-04-15T18:00:42.541Z,11.60
2023-04-15T18:03:09.877Z,11.60
2023-04-15T18:05:37.249Z,9.90
2023-04-15T18:08:05.938Z,9.97
2023-04-15T18:10:36.576Z,9.53
2023-04-15T18:13:03.798Z,10.50
2023-04-15T18:15:31.795Z,8.77
2023-04-15T18:18:00.091Z,9.23
2023-04-15T18:20:28.102Z,9.37
2023-04-15T18:22:55.885Z,9.43
2023-04-15T18:25:22.968Z,7.63
2023-04-15T18:27:50.387Z,9.27
2023-04-15T18:30:17.589Z,9.03
2023-04-15T18:32:44.866Z,8.03
2023-04-15T18:35:12.147Z,7.70
2023-04-15T18:37:39.416Z,8.27
2023-04-15T18:40:07.475Z,7.67
2023-04-15T18:42:34.848Z,8.50
2023-04-15T18:45:02.127Z,8.17
2023-04-15T18:47:29.725Z,8.40
2023-04-15T18:49:58.376Z,7.67
2023-04-15T18:52:25.592Z,8.27
2023-04-15T18:54:52.895Z,7.53
2023-04-15T18:57:23.618Z,7.63
2023-04-15T18:59:58.650Z,7.13
2023-04-15T19:02:26.137Z,7.53
2023-04-15T19:04:53.321Z,8.03
2023-04-15T19:07:20.635Z,7.57
2023-04-15T19:09:47.824Z,8.03
2023-04-15T19:12:14.982Z,6.80
2023-04-15T19:14:42.193Z,7.37
2023-04-15T19:17:09.357Z,7.13
2023-04-15T19:19:36.844Z,7.93
2023-04-15T19:22:04.167Z,7.50
2023-04-15T19:24:33.174Z,6.60
2023-04-15T19:27:01.439Z,7.43
2023-04-15T19:29:28.832Z,6.50
2023-04-15T19:31:56.045Z,7.70
2023-04-15T19:34:24.917Z,6.87
2023-04-15T19:36:52.200Z,7.17
2023-04-15T19:39:19.728Z,6.87
2023-04-15T19:41:47.255Z,6.93
2023-04-15T19:44:15.791Z,7.10
2023-04-15T19:46:44.759Z,7.60
2023-04-15T19:49:12.273Z,7.63
2023-04-15T19:51:39.455Z,8.03
2023-04-15T19:54:06.558Z,7.40
2023-04-15T19:56:34.561Z,7.80
2023-04-15T19:59:02.559Z,7.80
2023-04-15T20:01:29.918Z,7.83
2023-04-15T20:03:57.316Z,7.80
2023-04-15T20:06:24.631Z,7.67
2023-04-15T20:08:51.970Z,7.50
2023-04-15T20:11:19.294Z,7.97
2023-04-15T20:13:46.437Z,8.70
2023-04-15T20:16:13.728Z,8.00
2023-04-15T20:18:41.326Z,8.30
2023-04-15T20:21:08.612Z,8.27
2023-04-15T20:23:35.984Z,7.80
2023-04-15T20:26:03.148Z,8.50
2023-04-15T20:28:30.467Z,8.80
2023-04-15T20:30:57.975Z,8.73
2023-04-15T20:33:27.111Z,9.60
2023-04-15T20:35:55.407Z,8.70
2023-04-15T20:38:22.595Z,7.70
2023-04-15T20:40:49.767Z,8.13
2023-04-15T20:43:16.952Z,8.70
2023-04-15T20:45:44.122Z,7.73
2023-04-15T20:48:11.515Z,7.80
2023-04-15T20:50:38.969Z,8.87
2023-04-15T20:53:06.166Z,7.87
2023-04-15T20:55:33.318Z,7.87
2023-04-15T20:58:00.778Z,6.70
